Time;durP1;ratioP1;P1;durP2;ratioP2;P2;SDS_P1;SDS_P2;PMS_P1;PMS_P2;Temp;Humidity;BMP_temperature;BMP_pressure;BME280_temperature;BME280_humidity;BME280_pressure;Samples;Min_cycle;Max_cycle;Signal;HPM_P1;HPM_P2
2024/01/24 00:02:09;;;;;;;2.25;1.30;;;;;;;;;;5102046;27;20083;-60
2024/01/24 00:04:35;;;;;;;1.60;0.90;;;;;;;;;;5105794;27;20602;-59
2024/01/24 00:07:02;;;;;;;1.23;0.90;;;;;;;;;;5102415;27;20152;-60
2024/01/24 00:09:30;;;;;;;1.70;1.00;;;;;;;;;;5105824;27;20056;-60
2024/01/24 00:11:57;;;;;;;4.60;2.10;;;;;;;;;;5103620;27;20052;-61
2024/01/24 00:14:24;;;;;;;2.10;1.10;;;;;;;;;;5106259;27;20628;-60
2024/01/24 00:16:50;;;;;;;2.38;0.93;;;;;;;;;;5105515;27;20063;-61
2024/01/24 00:19:16;;;;;;;3.75;1.90;;;;;;;;;;5101181;28;20048;-59
2024/01/24 00:21:43;;;;;;;6.70;3.10;;;;;;;;;;5104446;27;20063;-59
2024/01/24 00:24:11;;;;;;;7.25;3.20;;;;;;;;;;5101145;27;20110;-61
2024/01/24 00:26:40;;;;;;;4.85;1.73;;;;;;;;;;5100674;27;20485;-61
2024/01/24 00:29:06;;;;;;;6.30;1.65;;;;;;;;;;5104227;27;20599;-59
2024/01/24 00:31:33;;;;;;;5.65;1.67;;;;;;;;;;5098978;27;20059;-60
2024/01/24 00:33:59;;;;;;;0.95;0.95;;;;;;;;;;5105256;27;20064;-59
2024/01/24 00:36:26;;;;;;;1.67;0.80;;;;;;;;;;5105862;27;20098;-59
2024/01/24 00:38:52;;;;;;;1.27;1.17;;;;;;;;;;5104531;27;20106;-60
2024/01/24 00:41:19;;;;;;;1.67;1.00;;;;;;;;;;5104786;27;20052;-60
2024/01/24 00:43:45;;;;;;;2.17;1.05;;;;;;;;;;5103449;27;20109;-60
2024/01/24 00:46:12;;;;;;;8.07;4.50;;;;;;;;;;5106340;27;20051;-60
2024/01/24 00:48:39;;;;;;;3.55;2.15;;;;;;;;;;5105105;27;20113;-60
2024/01/24 00:51:06;;;;;;;1.73;1.48;;;;;;;;;;5103314;28;20368;-59
2024/01/24 00:53:34;;;;;;;1.92;1.17;;;;;;;;;;5104832;27;20327;-59
2024/01/24 00:56:01;;;;;;;4.95;2.20;;;;;;;;;;5103418;27;20052;-59
2024/01/24 00:58:27;;;;;;;3.13;1.20;;;;;;;;;;5104084;28;20449;-60
2024/01/24 01:00:53;;;;;;;3.17;1.40;;;;;;;;;;5102183;27;20512;-59
2024/01/24 01:03:20;;;;;;;2.65;1.30;;;;;;;;;;5101867;27;20502;-59
2024/01/24 01:05:46;;;;;;;5.28;1.45;;;;;;;;;;5104694;27;20082;-60
2024/01/24 01:08:13;;;;;;;2.50;1.23;;;;;;;;;;5104307;28;20094;-60
2024/01/24 01:10:39;;;;;;;3.05;1.70;;;;;;;;;;5101809;27;20507;-60
2024/01/24 01:13:05;;;;;;;1.20;1.10;;;;;;;;;;5102562;27;20415;-59
2024/01/24 01:15:32;;;;;;;1.33;1.23;;;;;;;;;;5104257;27;20205;-59
2024/01/24 01:17:58;;;;;;;2.53;1.45;;;;;;;;;;5100826;27;20056;-59
2024/01/24 01:20:25;;;;;;;1.35;1.13;;;;;;;;;;5098679;28;20056;-60
2024/01/24 01:22:51;;;;;;;1.65;1.38;;;;;;;;;;5105095;27;20056;-60
2024/01/24 01:25:17;;;;;;;6.20;1.40;;;;;;;;;;5104747;27;20102;-59
2024/01/24 01:27:44;;;;;;;1.75;1.30;;;;;;;;;;5102154;27;20063;-59
2024/01/24 01:30:10;;;;;;;3.95;1.80;;;;;;;;;;5096269;27;20139;-59
2024/01/24 01:32:38;;;;;;;2.65;1.30;;;;;;;;;;5099732;27;20072;-60
2024/01/24 01:35:06;;;;;;;1.48;1.38;;;;;;;;;;5102183;27;20056;-60
2024/01/24 01:37:32;;;;;;;2.38;1.30;;;;;;;;;;5103690;27;20129;-60
2024/01/24 01:39:59;;;;;;;2.65;1.50;;;;;;;;;;5103576;27;20056;-59
2024/01/24 01:42:26;;;;;;;1.45;1.10;;;;;;;;;;5095797;27;20494;-60
2024/01/24 01:44:52;;;;;;;2.35;1.20;;;;;;;;;;5105778;27;20371;-60
2024/01/24 01:47:19;;;;;;;1.60;1.15;;;;;;;;;;5090169;28;20175;-59
2024/01/24 01:49:45;;;;;;;0.90;0.90;;;;;;;;;;5085181;28;20056;-59
2024/01/24 01:52:13;;;;;;;2.10;1.45;;;;;;;;;;5102702;28;20051;-60
2024/01/24 01:54:40;;;;;;;2.60;0.95;;;;;;;;;;5103400;27;20135;-61
2024/01/24 01:57:10;;;;;;;2.17;1.00;;;;;;;;;;5104424;27;20537;-60
2024/01/24 01:59:38;;;;;;;1.38;1.13;;;;;;;;;;5100990;27;20410;-60
2024/01/24 02:02:05;;;;;;;1.85;1.00;;;;;;;;;;5102951;27;20577;-59
2024/01/24 02:04:32;;;;;;;5.63;1.42;;;;;;;;;;5103482;27;20063;-59
2024/01/24 02:06:58;;;;;;;3.47;1.40;;;;;;;;;;5101863;27;20052;-59
2024/01/24 02:09:25;;;;;;;3.88;1.73;;;;;;;;;;5104477;27;20087;-60
2024/01/24 02:11:51;;;;;;;5.65;1.60;;;;;;;;;;5104106;27;20139;-59
2024/01/24 02:14:18;;;;;;;5.25;1.85;;;;;;;;;;5103976;28;20447;-60
2024/01/24 02:16:45;;;;;;;3.90;1.45;;;;;;;;;;5100893;27;20531;-59
2024/01/24 02:19:11;;;;;;;3.70;1.85;;;;;;;;;;5099355;27;20616;-59
2024/01/24 02:21:38;;;;;;;5.32;1.77;;;;;;;;;;5103711;27;20179;-60
2024/01/24 02:24:11;;;;;;;3.65;1.30;;;;;;;;;;5103854;27;20150;-61
2024/01/24 02:26:38;;;;;;;6.47;1.88;;;;;;;;;;5103971;27;20051;-61
2024/01/24 02:29:05;;;;;;;6.18;1.40;;;;;;;;;;5101928;27;20052;-60
2024/01/24 02:31:31;;;;;;;4.15;2.08;;;;;;;;;;5099891;27;20049;-59
2024/01/24 02:33:58;;;;;;;4.85;1.38;;;;;;;;;;5101937;28;20139;-60
2024/01/24 02:36:24;;;;;;;4.07;1.30;;;;;;;;;;5101222;27;20051;-60
2024/01/24 02:38:51;;;;;;;6.35;1.98;;;;;;;;;;5103170;27;20503;-61
2024/01/24 02:41:22;;;;;;;3.17;1.50;;;;;;;;;;5100243;27;20720;-60
2024/01/24 02:43:48;;;;;;;4.75;1.30;;;;;;;;;;5104040;27;20059;-60
2024/01/24 02:46:15;;;;;;;6.50;1.65;;;;;;;;;;5103011;27;20056;-60
2024/01/24 02:48:41;;;;;;;7.22;1.70;;;;;;;;;;5103313;27;20139;-60
2024/01/24 02:51:08;;;;;;;7.70;1.50;;;;;;;;;;5086862;28;20110;-60
2024/01/24 02:53:34;;;;;;;5.03;1.60;;;;;;;;;;5104010;27;20501;-60
2024/01/24 02:56:00;;;;;;;4.50;1.55;;;;;;;;;;5100724;27;20083;-60
2024/01/24 02:58:27;;;;;;;4.57;1.55;;;;;;;;;;5097441;27;20060;-60
2024/01/24 03:00:53;;;;;;;5.35;1.73;;;;;;;;;;5100961;27;20146;-60
2024/01/24 03:03:20;;;;;;;4.80;1.20;;;;;;;;;;5101240;28;20056;-61
2024/01/24 03:05:46;;;;;;;15.43;1.95;;;;;;;;;;5103253;27;20060;-62
2024/01/24 03:08:13;;;;;;;10.00;1.83;;;;;;;;;;5102316;27;20508;-61
2024/01/24 03:10:39;;;;;;;7.47;1.40;;;;;;;;;;5102935;27;20091;-61
2024/01/24 03:13:05;;;;;;;5.97;1.50;;;;;;;;;;5102979;27;20059;-60
2024/01/24 03:15:32;;;;;;;7.97;1.95;;;;;;;;;;5100699;27;22461;-60
2024/01/24 03:17:58;;;;;;;9.30;1.75;;;;;;;;;;5098378;27;20125;-61
2024/01/24 03:20:25;;;;;;;8.75;1.30;;;;;;;;;;5100076;27;20052;-61
2024/01/24 03:22:51;;;;;;;8.35;1.50;;;;;;;;;;5102717;27;20128;-60
2024/01/24 03:25:18;;;;;;;8.52;2.10;;;;;;;;;;5104032;27;20581;-61
2024/01/24 03:27:45;;;;;;;7.90;2.17;;;;;;;;;;5101117;27;20139;-61
2024/01/24 03:30:12;;;;;;;12.23;2.03;;;;;;;;;;5103895;27;20051;-60
2024/01/24 03:32:38;;;;;;;9.68;1.73;;;;;;;;;;5099900;28;20062;-60
2024/01/24 03:35:06;;;;;;;13.43;1.75;;;;;;;;;;5101724;27;20059;-62
2024/01/24 03:37:33;;;;;;;6.43;1.83;;;;;;;;;;5102177;28;20059;-59
2024/01/24 03:39:59;;;;;;;13.57;2.88;;;;;;;;;;5100639;27;20056;-61
2024/01/24 03:42:26;;;;;;;13.25;2.08;;;;;;;;;;5102678;28;20101;-60
2024/01/24 03:44:52;;;;;;;16.15;2.95;;;;;;;;;;5102174;27;20059;-60
2024/01/24 03:47:19;;;;;;;8.52;1.60;;;;;;;;;;5102127;27;20505;-61
2024/01/24 03:49:45;;;;;;;11.98;2.20;;;;;;;;;;5101156;27;20056;-60
2024/01/24 03:52:12;;;;;;;11.38;1.92;;;;;;;;;;5102640;27;20055;-60
2024/01/24 03:54:38;;;;;;;10.52;2.03;;;;;;;;;;5103261;27;20143;-61
2024/01/24 03:57:04;;;;;;;8.13;1.80;;;;;;;;;;5101564;27;20522;-61
2024/01/24 03:59:31;;;;;;;9.13;2.65;;;;;;;;;;5100933;27;20056;-61
2024/01/24 04:01:58;;;;;;;14.18;2.53;;;;;;;;;;5099351;27;20052;-60
2024/01/24 04:04:24;;;;;;;11.65;3.05;;;;;;;;;;5101707;28;20101;-61
2024/01/24 04:06:51;;;;;;;12.40;2.25;;;;;;;;;;5102270;28;20139;-61
2024/01/24 04:09:18;;;;;;;11.25;3.00;;;;;;;;;;5099503;27;20063;-60
2024/01/24 04:11:44;;;;;;;16.73;3.30;;;;;;;;;;5102040;27;20060;-59
2024/01/24 04:14:10;;;;;;;16.00;2.38;;;;;;;;;;5103010;27;20516;-60
2024/01/24 04:16:40;;;;;;;15.70;3.17;;;;;;;;;;5100011;27;20052;-59
2024/01/24 04:19:06;;;;;;;12.00;2.75;;;;;;;;;;5096494;27;20079;-61
2024/01/24 04:21:38;;;;;;;17.73;3.65;;;;;;;;;;5102433;28;20130;-61
2024/01/24 04:24:05;;;;;;;12.98;3.05;;;;;;;;;;5102384;27;20052;-60
2024/01/24 04:26:32;;;;;;;16.15;2.85;;;;;;;;;;5101920;27;20571;-60
2024/01/24 04:28:58;;;;;;;18.05;3.20;;;;;;;;;;5099300;27;20447;-61
2024/01/24 04:31:25;;;;;;;19.90;4.13;;;;;;;;;;5095899;28;20052;-60
2024/01/24 04:33:51;;;;;;;25.55;4.82;;;;;;;;;;5100133;27;20583;-60
2024/01/24 04:36:18;;;;;;;22.27;4.90;;;;;;;;;;5102435;28;20086;-61
2024/01/24 04:38:44;;;;;;;19.00;3.58;;;;;;;;;;5101278;28;20094;-61
2024/01/24 04:41:11;;;;;;;16.42;3.92;;;;;;;;;;5100559;27;20110;-61
2024/01/24 04:43:38;;;;;;;16.05;3.35;;;;;;;;;;5101161;27;20048;-61
2024/01/24 04:46:11;;;;;;;28.38;4.38;;;;;;;;;;5100598;27;20138;-61
2024/01/24 04:48:38;;;;;;;23.58;5.20;;;;;;;;;;5103870;27;20567;-62
2024/01/24 04:51:04;;;;;;;22.40;4.05;;;;;;;;;;5103425;27;20056;-61
2024/01/24 04:53:31;;;;;;;18.23;3.78;;;;;;;;;;5105764;27;20056;-61
2024/01/24 04:55:57;;;;;;;21.50;4.47;;;;;;;;;;5106170;27;20560;-59
2024/01/24 04:58:24;;;;;;;22.90;3.88;;;;;;;;;;5104158;27;20132;-61
2024/01/24 05:00:50;;;;;;;23.35;4.60;;;;;;;;;;5102415;27;20099;-61
2024/01/24 05:03:17;;;;;;;23.23;4.25;;;;;;;;;;5105197;27;20049;-58
2024/01/24 05:05:43;;;;;;;24.42;5.13;;;;;;;;;;5104286;27;20144;-60
2024/01/24 05:08:10;;;;;;;20.33;4.43;;;;;;;;;;5105793;27;20469;-60
2024/01/24 05:10:36;;;;;;;22.38;4.55;;;;;;;;;;5104614;27;20098;-60
2024/01/24 05:13:03;;;;;;;22.63;4.85;;;;;;;;;;5100772;27;20048;-61
2024/01/24 05:15:29;;;;;;;20.35;4.20;;;;;;;;;;5103383;27;20228;-61
2024/01/24 05:17:55;;;;;;;24.83;4.57;;;;;;;;;;5103916;27;20080;-59
2024/01/24 05:20:23;;;;;;;21.45;5.13;;;;;;;;;;5105214;27;20051;-59
2024/01/24 05:22:49;;;;;;;34.47;5.60;;;;;;;;;;5099838;27;20060;-59
2024/01/24 05:25:16;;;;;;;22.65;4.15;;;;;;;;;;5105402;27;20091;-61
2024/01/24 05:27:42;;;;;;;25.88;5.22;;;;;;;;;;5104415;27;20627;-61
2024/01/24 05:30:09;;;;;;;27.75;5.03;;;;;;;;;;5102041;27;20064;-61
2024/01/24 05:32:51;;;;;;;30.95;4.70;;;;;;;;;;5103155;27;20588;-60
2024/01/24 05:35:19;;;;;;;22.98;6.03;;;;;;;;;;5104994;27;20059;-60
2024/01/24 05:37:46;;;;;;;31.58;5.63;;;;;;;;;;5104091;27;20048;-60
2024/01/24 05:40:13;;;;;;;23.38;5.22;;;;;;;;;;5104467;27;20500;-60
2024/01/24 05:42:39;;;;;;;33.33;5.93;;;;;;;;;;5099851;27;20514;-60
2024/01/24 05:45:06;;;;;;;32.88;5.35;;;;;;;;;;5103034;27;20052;-62
2024/01/24 05:47:32;;;;;;;28.67;5.78;;;;;;;;;;5105189;27;20251;-62
2024/01/24 05:49:59;;;;;;;23.13;5.25;;;;;;;;;;5102638;27;20051;-61
2024/01/24 05:52:25;;;;;;;29.52;6.72;;;;;;;;;;5100418;27;20052;-61
2024/01/24 05:54:51;;;;;;;37.25;6.30;;;;;;;;;;5104642;27;20056;-61
2024/01/24 05:57:18;;;;;;;36.55;6.20;;;;;;;;;;5104201;27;20060;-61
2024/01/24 05:59:45;;;;;;;30.08;5.82;;;;;;;;;;5104034;27;20469;-61
2024/01/24 06:02:12;;;;;;;30.05;5.38;;;;;;;;;;5105754;27;20055;-62
2024/01/24 06:04:39;;;;;;;29.92;5.38;;;;;;;;;;5090385;27;20059;-61
2024/01/24 06:07:06;;;;;;;28.38;6.13;;;;;;;;;;5104959;27;20055;-61
2024/01/24 06:09:33;;;;;;;28.52;5.35;;;;;;;;;;5104548;27;20052;-61
2024/01/24 06:11:59;;;;;;;33.03;7.25;;;;;;;;;;5104057;27;20091;-61
2024/01/24 06:14:26;;;;;;;29.30;6.13;;;;;;;;;;5104034;27;20070;-60
2024/01/24 06:16:52;;;;;;;34.63;6.10;;;;;;;;;;5104602;27;20143;-59
2024/01/24 06:19:19;;;;;;;38.88;6.55;;;;;;;;;;5087577;27;20572;-60
2024/01/24 06:21:45;;;;;;;39.40;6.10;;;;;;;;;;5093776;28;20059;-59
2024/01/24 06:24:11;;;;;;;23.38;5.50;;;;;;;;;;5104801;27;20062;-61
2024/01/24 06:26:38;;;;;;;36.25;7.93;;;;;;;;;;5104854;27;20514;-61
2024/01/24 06:29:04;;;;;;;28.27;5.45;;;;;;;;;;5103773;27;20546;-60
2024/01/24 06:31:31;;;;;;;37.28;7.78;;;;;;;;;;5090209;27;20080;-60
2024/01/24 06:33:57;;;;;;;34.05;5.72;;;;;;;;;;5104171;27;20094;-59
2024/01/24 06:36:24;;;;;;;37.80;6.07;;;;;;;;;;5096942;27;20052;-60
2024/01/24 06:38:51;;;;;;;24.75;6.15;;;;;;;;;;5090480;28;20064;-60
2024/01/24 06:41:18;;;;;;;34.33;5.47;;;;;;;;;;5101141;27;20056;-61
2024/01/24 06:43:44;;;;;;;30.25;5.75;;;;;;;;;;5102310;27;20091;-61
2024/01/24 06:46:11;;;;;;;38.40;6.43;;;;;;;;;;5096735;27;20079;-60
2024/01/24 06:48:38;;;;;;;36.38;6.97;;;;;;;;;;5099855;27;20059;-60
2024/01/24 06:51:04;;;;;;;34.30;6.85;;;;;;;;;;5106991;27;20054;-60
2024/01/24 06:53:31;;;;;;;30.63;5.47;;;;;;;;;;5104072;27;20129;-61
2024/01/24 06:55:57;;;;;;;29.42;5.75;;;;;;;;;;5103105;27;20052;-61
2024/01/24 06:58:24;;;;;;;36.55;6.07;;;;;;;;;;5100856;27;20052;-61
2024/01/24 07:00:50;;;;;;;34.63;5.70;;;;;;;;;;5103321;27;20054;-60
2024/01/24 07:03:17;;;;;;;34.78;7.45;;;;;;;;;;5102859;27;20048;-61
2024/01/24 07:05:48;;;;;;;30.95;6.30;;;;;;;;;;5100497;27;20063;-59
2024/01/24 07:08:15;;;;;;;38.70;6.25;;;;;;;;;;5100860;27;20058;-61
2024/01/24 07:10:41;;;;;;;36.08;5.82;;;;;;;;;;5100693;27;20171;-60
2024/01/24 07:13:08;;;;;;;36.10;6.30;;;;;;;;;;5100046;27;20098;-61
2024/01/24 07:15:34;;;;;;;34.83;7.55;;;;;;;;;;5101348;27;20051;-61
2024/01/24 07:18:01;;;;;;;35.15;6.07;;;;;;;;;;5102604;27;20044;-61
2024/01/24 07:20:29;;;;;;;41.35;7.10;;;;;;;;;;5096270;27;20055;-61
2024/01/24 07:22:56;;;;;;;40.67;7.22;;;;;;;;;;5102351;28;20048;-61
2024/01/24 07:25:23;;;;;;;40.42;6.97;;;;;;;;;;5103195;27;20131;-61
2024/01/24 07:27:49;;;;;;;34.38;6.80;;;;;;;;;;5102655;27;20121;-60
2024/01/24 07:30:15;;;;;;;39.72;6.90;;;;;;;;;;5103421;27;20048;-62
2024/01/24 07:32:43;;;;;;;29.85;5.15;;;;;;;;;;5102957;27;20582;-61
2024/01/24 07:35:09;;;;;;;30.27;7.35;;;;;;;;;;5102204;27;20048;-61
2024/01/24 07:37:35;;;;;;;27.23;6.15;;;;;;;;;;5102817;27;20581;-61
2024/01/24 07:40:02;;;;;;;38.85;6.53;;;;;;;;;;5098518;27;20081;-60
2024/01/24 07:42:29;;;;;;;36.05;7.32;;;;;;;;;;5084091;28;20048;-60
2024/01/24 07:44:56;;;;;;;34.88;6.63;;;;;;;;;;5103161;27;20601;-61
2024/01/24 07:47:22;;;;;;;35.78;6.35;;;;;;;;;;5094842;27;20047;-58
2024/01/24 07:49:49;;;;;;;31.30;5.53;;;;;;;;;;5105041;27;20138;-60
2024/01/24 07:52:16;;;;;;;29.88;6.15;;;;;;;;;;5102670;27;20056;-60
2024/01/24 07:55:02;;;;;;;33.50;5.78;;;;;;;;;;5101889;27;20052;-59
2024/01/24 07:57:29;;;;;;;34.67;6.38;;;;;;;;;;5101263;27;20059;-61
2024/01/24 07:59:55;;;;;;;38.45;6.43;;;;;;;;;;5096716;27;20063;-61
2024/01/24 08:02:22;;;;;;;36.38;6.47;;;;;;;;;;5102201;27;20048;-60
2024/01/24 08:04:49;;;;;;;31.75;7.53;;;;;;;;;;5096156;27;20083;-60
2024/01/24 08:07:15;;;;;;;27.55;5.07;;;;;;;;;;5102439;27;20508;-61
2024/01/24 08:09:44;;;;;;;22.45;5.50;;;;;;;;;;5101694;28;20048;-61
2024/01/24 08:12:11;;;;;;;36.72;5.97;;;;;;;;;;5082467;28;20470;-59
2024/01/24 08:14:38;;;;;;;34.13;5.95;;;;;;;;;;5093835;27;20118;-60
2024/01/24 08:17:06;;;;;;;26.40;6.55;;;;;;;;;;5099687;27;20110;-59
2024/01/24 08:19:33;;;;;;;28.98;4.88;;;;;;;;;;5101903;27;20589;-60
2024/01/24 08:22:00;;;;;;;28.77;5.55;;;;;;;;;;5103614;27;20621;-60
2024/01/24 08:24:26;;;;;;;24.05;4.88;;;;;;;;;;5105214;27;20679;-61
2024/01/24 08:26:53;;;;;;;32.30;5.60;;;;;;;;;;5105604;27;20056;-60
2024/01/24 08:29:20;;;;;;;20.02;4.57;;;;;;;;;;5104606;27;20048;-61
2024/01/24 08:31:57;;;;;;;25.45;5.63;;;;;;;;;;5112078;27;20448;-60
2024/01/24 08:34:24;;;;;;;32.40;7.53;;;;;;;;;;5105854;27;20067;-59
2024/01/24 08:36:50;;;;;;;38.00;7.35;;;;;;;;;;5104940;27;20056;-61
2024/01/24 08:39:17;;;;;;;27.08;4.97;;;;;;;;;;5105350;27;20498;-60
2024/01/24 08:41:43;;;;;;;26.65;6.57;;;;;;;;;;5103584;27;20105;-59
2024/01/24 08:44:09;;;;;;;36.40;8.57;;;;;;;;;;5105272;27;20552;-61
2024/01/24 08:46:36;;;;;;;32.85;4.90;;;;;;;;;;5105092;27;20086;-61
2024/01/24 08:49:02;;;;;;;30.52;5.15;;;;;;;;;;5104808;27;20829;-60
2024/01/24 08:51:32;;;;;;;27.15;5.22;;;;;;;;;;5105335;27;20055;-60
2024/01/24 08:53:59;;;;;;;26.13;5.68;;;;;;;;;;5104538;27;20056;-61
2024/01/24 08:56:26;;;;;;;29.35;6.57;;;;;;;;;;5104839;27;20151;-60
2024/01/24 08:58:52;;;;;;;31.30;6.38;;;;;;;;;;5103813;27;20143;-60
2024/01/24 09:01:19;;;;;;;32.60;5.57;;;;;;;;;;5105619;27;20090;-59
2024/01/24 09:03:48;;;;;;;30.77;4.97;;;;;;;;;;5104586;27;20056;-62
2024/01/24 09:06:15;;;;;;;26.05;6.07;;;;;;;;;;5104494;27;20067;-61
2024/01/24 09:08:45;;;;;;;33.35;5.95;;;;;;;;;;5093907;27;20060;-60
2024/01/24 09:11:12;;;;;;;27.67;5.63;;;;;;;;;;5104990;27;20095;-59
2024/01/24 09:13:39;;;;;;;27.10;6.50;;;;;;;;;;5105131;27;20048;-60
2024/01/24 09:16:05;;;;;;;28.33;4.85;;;;;;;;;;5104197;27;20044;-59
2024/01/24 09:18:32;;;;;;;31.42;5.05;;;;;;;;;;5105179;28;20181;-61
2024/01/24 09:21:00;;;;;;;26.80;5.72;;;;;;;;;;5103943;27;20048;-61
2024/01/24 09:23:29;;;;;;;31.20;6.45;;;;;;;;;;5104129;27;20063;-61
2024/01/24 09:25:55;;;;;;;25.08;5.25;;;;;;;;;;5115041;27;20052;-61
2024/01/24 09:28:22;;;;;;;25.92;6.30;;;;;;;;;;5104577;27;20049;-61
2024/01/24 09:30:49;;;;;;;33.60;6.55;;;;;;;;;;5108306;27;20051;-61
2024/01/24 09:33:16;;;;;;;32.70;5.70;;;;;;;;;;5092358;27;20499;-61
2024/01/24 09:35:44;;;;;;;28.67;5.85;;;;;;;;;;5104538;27;20052;-59
2024/01/24 09:38:11;;;;;;;28.10;6.57;;;;;;;;;;5118223;27;20386;-61
2024/01/24 09:40:37;;;;;;;33.20;5.68;;;;;;;;;;5121249;27;20059;-58
2024/01/24 09:43:04;;;;;;;32.22;5.18;;;;;;;;;;5104205;27;20055;-60
2024/01/24 09:45:31;;;;;;;31.45;5.88;;;;;;;;;;5102904;27;20143;-56
2024/01/24 09:47:58;;;;;;;29.33;5.53;;;;;;;;;;5102636;27;20510;-60
2024/01/24 09:50:25;;;;;;;31.08;6.38;;;;;;;;;;5103728;27;20056;-60
2024/01/24 09:52:52;;;;;;;28.23;5.78;;;;;;;;;;5103381;27;20055;-60
2024/01/24 09:55:21;;;;;;;25.85;5.45;;;;;;;;;;5104161;27;20187;-59
2024/01/24 09:57:48;;;;;;;29.58;4.07;;;;;;;;;;5104242;27;20052;-60
2024/01/24 10:00:15;;;;;;;36.15;6.90;;;;;;;;;;5104338;27;20074;-62
2024/01/24 10:02:45;;;;;;;28.85;5.50;;;;;;;;;;5106109;27;20044;-60
2024/01/24 10:05:14;;;;;;;24.90;5.45;;;;;;;;;;5104148;27;20117;-60
2024/01/24 10:07:41;;;;;;;26.23;5.50;;;;;;;;;;5103613;27;20426;-59
2024/01/24 10:10:09;;;;;;;27.02;5.72;;;;;;;;;;5091759;27;20053;-60
2024/01/24 10:12:36;;;;;;;24.08;4.47;;;;;;;;;;5100218;27;20101;-59
2024/01/24 10:15:03;;;;;;;27.98;5.43;;;;;;;;;;5107211;27;20427;-60
2024/01/24 10:17:30;;;;;;;32.78;6.05;;;;;;;;;;5103679;27;20052;-60
2024/01/24 10:19:57;;;;;;;21.75;4.47;;;;;;;;;;5102784;27;20044;-60
2024/01/24 10:22:24;;;;;;;26.45;5.75;;;;;;;;;;5104227;27;20052;-60
2024/01/24 10:24:54;;;;;;;22.23;5.20;;;;;;;;;;5102686;27;20082;-60
2024/01/24 10:27:22;;;;;;;26.52;4.72;;;;;;;;;;5103905;27;20422;-59
2024/01/24 10:29:51;;;;;;;28.73;5.30;;;;;;;;;;5103428;27;20087;-60
2024/01/24 10:32:19;;;;;;;16.90;4.35;;;;;;;;;;5103396;27;20059;-60
2024/01/24 10:34:48;;;;;;;22.67;4.75;;;;;;;;;;5102179;27;20137;-60
2024/01/24 10:37:18;;;;;;;38.20;7.15;;;;;;;;;;5102880;27;20397;-60
2024/01/24 10:39:45;;;;;;;28.25;5.15;;;;;;;;;;5099135;27;20556;-60
2024/01/24 10:42:17;;;;;;;36.45;5.95;;;;;;;;;;5103018;27;20082;-59
2024/01/24 10:44:44;;;;;;;24.23;5.22;;;;;;;;;;5100072;27;20062;-60
2024/01/24 10:47:11;;;;;;;26.48;5.35;;;;;;;;;;5103066;27;20056;-60
2024/01/24 10:49:39;;;;;;;27.75;5.43;;;;;;;;;;5103120;27;20052;-60
2024/01/24 10:52:07;;;;;;;28.50;6.45;;;;;;;;;;5103098;27;20059;-61
2024/01/24 10:54:34;;;;;;;27.02;5.63;;;;;;;;;;5100395;27;20537;-60
2024/01/24 10:57:02;;;;;;;25.10;5.50;;;;;;;;;;5102937;27;20052;-60
2024/01/24 10:59:31;;;;;;;27.17;4.97;;;;;;;;;;5102994;27;20466;-60
2024/01/24 11:01:58;;;;;;;25.00;5.85;;;;;;;;;;5102284;27;20044;-60
2024/01/24 11:04:25;;;;;;;22.73;4.75;;;;;;;;;;5102313;27;20143;-59
2024/01/24 11:06:57;;;;;;;26.02;5.63;;;;;;;;;;5102883;27;20064;-60
2024/01/24 11:09:41;;;;;;;34.78;5.85;;;;;;;;;;5103131;27;20052;-59
2024/01/24 11:12:09;;;;;;;24.83;4.95;;;;;;;;;;5103586;27;20393;-61
2024/01/24 11:14:36;;;;;;;30.25;5.60;;;;;;;;;;5101556;27;20048;-61
2024/01/24 11:17:03;;;;;;;26.92;5.90;;;;;;;;;;5101579;28;20048;-61
2024/01/24 11:19:30;;;;;;;21.02;5.25;;;;;;;;;;5102528;27;20052;-61
2024/01/24 11:22:03;;;;;;;30.80;6.43;;;;;;;;;;5102232;27;20078;-60
2024/01/24 11:24:44;;;;;;;29.98;5.07;;;;;;;;;;5102349;27;20056;-60
2024/01/24 11:27:24;;;;;;;28.48;5.80;;;;;;;;;;5102972;27;20106;-59
2024/01/24 11:29:50;;;;;;;31.67;6.00;;;;;;;;;;5102892;27;20044;-60
2024/01/24 11:32:36;;;;;;;27.60;5.20;;;;;;;;;;5102397;27;20074;-59
2024/01/24 11:35:38;;;;;;;19.48;4.03;;;;;;;;;;5102420;27;20506;-60
2024/01/24 11:38:04;;;;;;;28.65;5.03;;;;;;;;;;5039273;28;20057;-59
2024/01/24 11:40:47;;;;;;;23.13;4.28;;;;;;;;;;5037950;28;20190;-59
2024/01/24 11:43:22;;;;;;;25.08;5.13;;;;;;;;;;5038666;28;20562;-57
2024/01/24 11:45:52;;;;;;;29.33;6.00;;;;;;;;;;5028801;28;20053;-58
2024/01/24 11:48:19;;;;;;;29.95;5.30;;;;;;;;;;5040752;28;20059;-60
2024/01/24 11:50:53;;;;;;;27.35;5.40;;;;;;;;;;5040316;28;20053;-59
2024/01/24 11:53:20;;;;;;;28.35;5.65;;;;;;;;;;5038534;28;20057;-60
2024/01/24 11:55:50;;;;;;;28.70;4.97;;;;;;;;;;5037629;28;20659;-59
2024/01/24 11:58:16;;;;;;;29.92;5.32;;;;;;;;;;5041037;28;20519;-59
2024/01/24 12:00:43;;;;;;;24.77;4.97;;;;;;;;;;5039131;28;20053;-59
2024/01/24 12:03:12;;;;;;;27.42;5.03;;;;;;;;;;5025734;28;20124;-60
2024/01/24 12:05:39;;;;;;;26.60;4.57;;;;;;;;;;5045350;28;20061;-61
2024/01/24 12:08:06;;;;;;;25.35;5.72;;;;;;;;;;5057155;28;20579;-61
2024/01/24 12:10:36;;;;;;;18.58;4.93;;;;;;;;;;5038032;28;20470;-60
2024/01/24 12:13:03;;;;;;;19.98;5.07;;;;;;;;;;5084554;27;20059;-60
2024/01/24 12:15:30;;;;;;;25.70;5.38;;;;;;;;;;5102187;27;20048;-61
2024/01/24 12:18:04;;;;;;;23.63;5.15;;;;;;;;;;5100319;27;20056;-60
2024/01/24 12:20:32;;;;;;;21.17;4.00;;;;;;;;;;5100021;27;20458;-61
2024/01/24 12:23:01;;;;;;;19.40;4.07;;;;;;;;;;5101448;27;20044;-60
2024/01/24 12:25:28;;;;;;;21.38;3.63;;;;;;;;;;5108275;27;20113;-60
2024/01/24 12:27:56;;;;;;;24.92;4.40;;;;;;;;;;5101693;27;20137;-60
2024/01/24 12:30:32;;;;;;;22.98;4.80;;;;;;;;;;5096524;27;20615;-60
2024/01/24 12:32:59;;;;;;;22.55;4.50;;;;;;;;;;5100534;27;20147;-61
2024/01/24 12:35:28;;;;;;;23.83;4.63;;;;;;;;;;5100004;27;20082;-61
2024/01/24 12:37:59;;;;;;;26.00;5.30;;;;;;;;;;5117655;27;20117;-60
2024/01/24 12:40:30;;;;;;;37.20;5.47;;;;;;;;;;5116873;27;20147;-60
2024/01/24 12:42:56;;;;;;;27.88;5.63;;;;;;;;;;5122330;27;20502;-60
2024/01/24 12:45:24;;;;;;;28.10;4.60;;;;;;;;;;5102646;27;20273;-60
2024/01/24 12:47:52;;;;;;;20.10;3.92;;;;;;;;;;5099295;27;20528;-60
2024/01/24 12:50:18;;;;;;;24.25;5.00;;;;;;;;;;5094169;27;20060;-60
2024/01/24 12:52:45;;;;;;;19.15;3.97;;;;;;;;;;5100786;27;20158;-60
2024/01/24 12:55:11;;;;;;;28.73;5.05;;;;;;;;;;5105652;27;20533;-60
2024/01/24 12:57:39;;;;;;;22.02;4.43;;;;;;;;;;5107259;27;20135;-61
2024/01/24 13:00:09;;;;;;;22.77;6.18;;;;;;;;;;5101884;27;20082;-60
2024/01/24 13:02:37;;;;;;;29.20;5.32;;;;;;;;;;5101359;27;20052;-60
2024/01/24 13:05:05;;;;;;;23.10;4.63;;;;;;;;;;5101630;27;20559;-60
2024/01/24 13:07:33;;;;;;;27.05;4.93;;;;;;;;;;5100692;27;20060;-59
2024/01/24 13:10:00;;;;;;;20.45;4.38;;;;;;;;;;5089003;27;20074;-60
2024/01/24 13:12:32;;;;;;;31.13;5.93;;;;;;;;;;5103098;27;20052;-61
2024/01/24 13:14:59;;;;;;;34.08;5.85;;;;;;;;;;5103699;27;21051;-61
2024/01/24 13:17:25;;;;;;;20.67;4.43;;;;;;;;;;5104819;27;20059;-59
2024/01/24 13:19:52;;;;;;;26.33;5.50;;;;;;;;;;5104857;27;20048;-60
2024/01/24 13:22:19;;;;;;;24.80;4.68;;;;;;;;;;5103866;28;20052;-61
2024/01/24 13:24:46;;;;;;;26.88;5.55;;;;;;;;;;5104078;27;20138;-60
2024/01/24 13:27:17;;;;;;;33.03;4.80;;;;;;;;;;5095369;27;20121;-60
2024/01/24 13:29:43;;;;;;;21.85;4.47;;;;;;;;;;5103839;27;20056;-60
2024/01/24 13:32:09;;;;;;;22.85;5.25;;;;;;;;;;5104968;28;20083;-61
2024/01/24 13:34:36;;;;;;;23.38;4.25;;;;;;;;;;5104241;27;20052;-61
2024/01/24 13:37:03;;;;;;;26.23;5.03;;;;;;;;;;5104499;28;20052;-61
2024/01/24 13:39:29;;;;;;;19.55;4.07;;;;;;;;;;5104496;27;20052;-59
2024/01/24 13:41:57;;;;;;;25.33;5.90;;;;;;;;;;5104868;27;20056;-59
2024/01/24 13:44:24;;;;;;;25.83;5.70;;;;;;;;;;5103605;27;20070;-60
2024/01/24 13:46:50;;;;;;;22.15;5.22;;;;;;;;;;5125064;27;20441;-60
2024/01/24 13:49:17;;;;;;;28.52;6.03;;;;;;;;;;5109395;27;20078;-61
2024/01/24 13:51:44;;;;;;;24.77;5.88;;;;;;;;;;5103666;27;20058;-60
2024/01/24 13:54:11;;;;;;;31.27;5.15;;;;;;;;;;5104519;27;20423;-60
2024/01/24 13:56:37;;;;;;;28.73;5.00;;;;;;;;;;5104201;27;20522;-60
2024/01/24 13:59:04;;;;;;;22.17;4.43;;;;;;;;;;5105289;27;20094;-61
2024/01/24 14:01:30;;;;;;;23.52;4.53;;;;;;;;;;5102130;27;20048;-60
2024/01/24 14:04:01;;;;;;;26.45;4.30;;;;;;;;;;5117050;27;20054;-60
2024/01/24 14:06:28;;;;;;;18.17;4.53;;;;;;;;;;5104095;27;20141;-60
2024/01/24 14:08:54;;;;;;;20.80;4.60;;;;;;;;;;5103102;27;20087;-60
2024/01/24 14:11:22;;;;;;;32.28;5.55;;;;;;;;;;5104341;27;20113;-59
2024/01/24 14:13:49;;;;;;;25.02;4.85;;;;;;;;;;5103228;27;20048;-60
2024/01/24 14:16:17;;;;;;;32.55;5.65;;;;;;;;;;5104066;27;20517;-60
2024/01/24 14:18:43;;;;;;;24.30;6.05;;;;;;;;;;5101440;27;20135;-60
2024/01/24 14:21:11;;;;;;;28.80;5.63;;;;;;;;;;5104225;27;20143;-60
2024/01/24 14:23:39;;;;;;;25.23;4.43;;;;;;;;;;5103780;27;20143;-60
2024/01/24 14:26:06;;;;;;;22.60;4.93;;;;;;;;;;5103828;27;20434;-60
2024/01/24 14:28:34;;;;;;;24.73;4.38;;;;;;;;;;5103139;27;20604;-60
2024/01/24 14:31:00;;;;;;;27.63;5.30;;;;;;;;;;5103424;27;20149;-60
2024/01/24 14:33:27;;;;;;;25.55;4.85;;;;;;;;;;5102949;27;20080;-59
2024/01/24 14:36:00;;;;;;;26.45;4.50;;;;;;;;;;5100240;27;20091;-60